createdAt,value
2022-08-14T00:02:07.144Z,12.70
2022-08-14T00:04:44.606Z,11.85
2022-08-14T00:07:13.955Z,12.25
2022-08-14T00:10:02.048Z,12.77
2022-08-14T00:12:33.437Z,13.85
2022-08-14T00:15:20.195Z,12.65
2022-08-14T00:17:53.343Z,13.52
2022-08-14T00:20:30.956Z,13.35
2022-08-14T00:23:12.642Z,13.65
2022-08-14T00:25:54.069Z,14.07
2022-08-14T00:28:35.442Z,13.07
2022-08-14T00:33:50.585Z,13.35
2022-08-14T00:36:35.580Z,13.55
2022-08-14T00:39:06.432Z,12.30
2022-08-14T00:41:33.884Z,12.50
2022-08-14T00:44:00.832Z,13.35
2022-08-14T00:46:33.055Z,12.65
2022-08-14T00:49:00.810Z,12.50
2022-08-14T00:51:34.666Z,12.73
2022-08-14T00:54:11.113Z,13.32
2022-08-14T00:56:49.610Z,12.45
2022-08-14T00:59:16.397Z,12.68
2022-08-14T01:01:44.368Z,12.73
2022-08-14T01:04:38.339Z,11.95
2022-08-14T01:06:59.142Z,13.43
2022-08-14T01:09:26.673Z,12.32
2022-08-14T01:12:03.284Z,12.82
2022-08-14T01:14:30.497Z,13.10
2022-08-14T01:16:58.055Z,12.43
2022-08-14T01:19:46.749Z,12.63
2022-08-14T01:22:18.912Z,11.80
2022-08-14T01:24:47.018Z,12.40
2022-08-14T01:27:24.122Z,13.13
2022-08-14T01:29:58.860Z,12.55
2022-08-14T01:32:30.226Z,13.10
2022-08-14T01:35:19.977Z,13.40
2022-08-14T01:37:54.697Z,12.40
2022-08-14T01:40:36.518Z,13.90
2022-08-14T01:43:14.585Z,13.57
2022-08-14T01:45:42.463Z,13.90
2022-08-14T01:48:16.074Z,15.32
2022-08-14T01:50:47.718Z,15.35
2022-08-14T01:53:15.454Z,15.10
2022-08-14T01:55:42.543Z,16.65
2022-08-14T01:58:19.961Z,14.98
2022-08-14T02:00:55.364Z,15.57
2022-08-14T02:03:30.722Z,16.00
2022-08-14T02:06:00.075Z,15.77
2022-08-14T02:08:34.661Z,14.88
2022-08-14T02:11:18.889Z,14.93
2022-08-14T02:14:07.158Z,14.75
2022-08-14T02:16:39.683Z,15.10
2022-08-14T02:19:13.536Z,14.88
2022-08-14T02:21:46.951Z,14.93
2022-08-14T02:24:39.752Z,15.68
2022-08-14T02:28:24.312Z,14.38
2022-08-14T02:29:59.462Z,13.57
2022-08-14T02:32:30.643Z,14.07
2022-08-14T02:35:16.009Z,12.45
2022-08-14T02:37:47.379Z,12.32
2022-08-14T02:40:16.567Z,12.15
2022-08-14T02:42:54.848Z,11.63
2022-08-14T02:45:33.422Z,11.25
2022-08-14T02:48:10.409Z,10.73
2022-08-14T02:50:54.285Z,11.93
2022-08-14T02:53:21.142Z,13.48
2022-08-14T02:55:47.984Z,13.45
2022-08-14T02:58:29.243Z,14.38
2022-08-14T03:00:58.307Z,14.48
2022-08-14T03:03:25.804Z,14.77
2022-08-14T03:05:54.198Z,15.55
2022-08-14T03:08:21.506Z,15.80
2022-08-14T03:10:50.331Z,15.88
2022-08-14T03:13:21.383Z,16.02
2022-08-14T03:15:56.186Z,16.83
2022-08-14T03:18:31.697Z,16.77
2022-08-14T03:21:05.872Z,17.38
2022-08-14T03:23:37.926Z,16.88
2022-08-14T03:26:12.933Z,17.55
2022-08-14T03:28:48.502Z,17.77
2022-08-14T03:33:43.283Z,17.38
2022-08-14T03:37:39.127Z,16.90
2022-08-14T03:39:16.391Z,17.92
2022-08-14T03:41:54.792Z,16.42
2022-08-14T03:45:26.345Z,17.00
2022-08-14T03:47:11.657Z,16.17
2022-08-14T03:49:42.194Z,16.83
2022-08-14T03:52:18.153Z,16.05
2022-08-14T03:54:56.352Z,16.88
2022-08-14T03:57:23.759Z,14.85
2022-08-14T03:59:50.712Z,16.70
2022-08-14T04:02:33.255Z,15.55
2022-08-14T04:05:11.711Z,16.42
2022-08-14T04:07:49.427Z,16.75
2022-08-14T04:10:17.559Z,16.00
2022-08-14T04:13:03.489Z,17.33
2022-08-14T04:15:31.802Z,16.52
2022-08-14T04:18:18.522Z,16.27
2022-08-14T04:20:55.024Z,15.48
2022-08-14T04:23:29.103Z,17.17
2022-08-14T04:25:56.751Z,15.95
2022-08-14T04:29:01.975Z,16.83
2022-08-14T04:31:11.765Z,16.10
2022-08-14T04:33:42.682Z,18.02
2022-08-14T04:36:16.073Z,17.17
2022-08-14T04:39:03.030Z,16.58
2022-08-14T04:41:48.548Z,17.48
2022-08-14T04:44:36.276Z,16.63
2022-08-14T04:47:23.668Z,16.65
2022-08-14T04:49:57.050Z,15.82
2022-08-14T04:52:25.329Z,16.45
2022-08-14T04:54:52.397Z,16.20
2022-08-14T04:57:21.847Z,16.73
2022-08-14T04:59:49.590Z,16.00
2022-08-14T05:02:18.147Z,16.42
2022-08-14T05:04:45.519Z,18.17
2022-08-14T05:07:46.730Z,17.60
2022-08-14T05:10:16.800Z,17.83
2022-08-14T05:13:13.652Z,18.08
2022-08-14T05:15:39.500Z,18.77
2022-08-14T05:18:17.794Z,19.73
2022-08-14T05:21:59.260Z,19.85
2022-08-14T05:23:51.967Z,19.17
2022-08-14T05:26:21.702Z,19.27
2022-08-14T05:28:49.028Z,19.50
2022-08-14T05:31:20.620Z,20.25
2022-08-14T05:33:56.834Z,18.15
2022-08-14T05:36:24.683Z,18.75
2022-08-14T05:38:53.179Z,17.52
2022-08-14T05:41:20.258Z,18.65
2022-08-14T05:43:48.949Z,17.95
2022-08-14T05:46:19.006Z,17.92
2022-08-14T05:48:53.478Z,16.95
2022-08-14T05:51:21.819Z,17.02
2022-08-14T05:54:01.887Z,16.10
2022-08-14T05:56:36.957Z,16.13
2022-08-14T05:59:04.448Z,15.15
2022-08-14T06:01:32.227Z,16.10
2022-08-14T06:03:59.006Z,15.63
2022-08-14T06:06:26.085Z,14.95
2022-08-14T06:08:52.951Z,15.68
2022-08-14T06:11:30.794Z,16.02
2022-08-14T06:13:58.650Z,17.15
2022-08-14T06:16:25.790Z,16.88
2022-08-14T06:18:53.277Z,15.00
2022-08-14T06:21:22.001Z,15.65
2022-08-14T06:23:49.492Z,15.40
2022-08-14T06:26:20.707Z,15.23
2022-08-14T06:28:52.370Z,16.10
2022-08-14T06:31:20.477Z,15.77
2022-08-14T06:35:11.737Z,14.23
2022-08-14T06:36:36.662Z,15.68
2022-08-14T06:39:03.602Z,15.10
2022-08-14T06:41:56.636Z,14.52
2022-08-14T06:44:21.613Z,14.80
2022-08-14T06:46:57.673Z,15.30
2022-08-14T06:49:27.102Z,15.18
2022-08-14T06:51:54.457Z,13.90
2022-08-14T06:54:21.234Z,15.55
2022-08-14T06:56:54.096Z,16.85
2022-08-14T06:59:21.607Z,14.60
2022-08-14T07:02:13.281Z,15.00
2022-08-14T07:05:05.337Z,15.55
2022-08-14T07:07:39.669Z,14.25
2022-08-14T07:10:17.061Z,13.90
2022-08-14T07:13:01.015Z,15.20
2022-08-14T07:15:29.553Z,14.45
2022-08-14T07:20:30.906Z,14.57
2022-08-14T07:23:07.798Z,15.05
2022-08-14T07:25:37.661Z,13.73
2022-08-14T07:28:12.793Z,14.73
2022-08-14T07:30:51.590Z,13.75
2022-08-14T07:33:20.682Z,13.02
2022-08-14T07:35:57.652Z,13.48
2022-08-14T07:38:33.661Z,13.20
2022-08-14T07:41:06.899Z,11.77
2022-08-14T07:43:43.170Z,12.02
2022-08-14T07:46:11.074Z,12.15
2022-08-14T07:48:40.725Z,12.50
2022-08-14T07:51:10.590Z,12.47
2022-08-14T07:56:44.101Z,11.38
2022-08-14T07:58:58.189Z,11.88
2022-08-14T08:01:27.898Z,12.68
2022-08-14T08:04:01.413Z,11.10
2022-08-14T08:06:30.768Z,12.32
2022-08-14T08:09:01.114Z,12.85
2022-08-14T08:11:37.320Z,11.95
2022-08-14T08:14:17.421Z,11.77
2022-08-14T08:16:47.494Z,11.88
2022-08-14T08:19:19.238Z,11.50
2022-08-14T08:21:47.078Z,11.02
2022-08-14T08:24:19.754Z,11.60
2022-08-14T08:26:47.034Z,11.50
2022-08-14T08:29:22.351Z,12.60
2022-08-14T08:31:55.491Z,11.48
2022-08-14T08:34:23.694Z,12.23
2022-08-14T08:36:52.566Z,13.20
2022-08-14T08:39:22.866Z,13.10
2022-08-14T08:41:53.861Z,13.65
2022-08-14T08:44:32.499Z,13.05
2022-08-14T08:47:05.595Z,12.70
2022-08-14T08:49:43.327Z,13.05
2022-08-14T08:52:31.007Z,13.23
2022-08-14T08:54:59.601Z,13.93
2022-08-14T08:57:33.324Z,13.38
2022-08-14T09:00:02.746Z,12.77
2022-08-14T09:02:36.984Z,11.73
2022-08-14T09:05:04.189Z,11.40
2022-08-14T09:07:31.501Z,11.60
2022-08-14T09:10:00.110Z,11.50
2022-08-14T09:12:33.148Z,12.00
2022-08-14T09:15:09.082Z,11.07
2022-08-14T09:17:43.583Z,12.00
2022-08-14T09:20:14.066Z,12.25
2022-08-14T09:22:54.809Z,11.48
2022-08-14T09:26:00.445Z,11.47
2022-08-14T09:28:09.277Z,11.60
2022-08-14T09:30:40.404Z,11.52
2022-08-14T09:33:56.422Z,12.38
2022-08-14T09:36:53.494Z,12.10
2022-08-14T09:39:42.330Z,13.00
2022-08-14T09:42:33.980Z,13.95
2022-08-14T09:45:24.026Z,14.63
2022-08-14T09:47:57.877Z,17.38
2022-08-14T09:50:30.558Z,17.02
2022-08-14T09:53:05.162Z,17.88
2022-08-14T09:55:42.378Z,17.38
2022-08-14T09:58:15.097Z,17.65
2022-08-14T10:00:50.302Z,19.23
2022-08-14T10:03:33.041Z,18.00
2022-08-14T10:06:13.720Z,19.83
2022-08-14T10:08:51.245Z,19.77
2022-08-14T10:11:34.834Z,20.40
2022-08-14T10:14:21.091Z,21.15
2022-08-14T10:17:05.256Z,21.75
2022-08-14T10:19:35.350Z,20.67
2022-08-14T10:23:15.420Z,21.45
2022-08-14T10:24:56.469Z,21.52
2022-08-14T10:27:25.217Z,22.15
2022-08-14T10:30:01.399Z,21.10
2022-08-14T10:32:49.698Z,21.42
2022-08-14T10:35:16.534Z,22.73
2022-08-14T10:37:49.497Z,21.88
2022-08-14T10:40:38.886Z,22.33
2022-08-14T10:43:19.001Z,22.50
2022-08-14T10:45:59.707Z,22.93
2022-08-14T10:49:05.170Z,21.85
2022-08-14T10:51:35.286Z,23.20
2022-08-14T10:54:35.181Z,24.17
2022-08-14T10:56:55.950Z,23.15
2022-08-14T10:59:30.838Z,23.08
2022-08-14T11:02:02.266Z,22.45
2022-08-14T11:04:30.547Z,22.58
2022-08-14T11:06:58.376Z,22.20
2022-08-14T11:09:32.047Z,21.98
2022-08-14T11:12:34.865Z,21.73
2022-08-14T11:15:02.337Z,23.13
2022-08-14T11:17:32.715Z,22.15
2022-08-14T11:20:02.506Z,23.35
2022-08-14T11:25:21.219Z,20.80
2022-08-14T11:27:49.123Z,23.80
2022-08-14T11:30:49.867Z,22.92
2022-08-14T11:33:09.270Z,22.70
2022-08-14T11:35:47.228Z,21.98
2022-08-14T11:38:16.978Z,23.15
2022-08-14T11:40:47.095Z,22.52
2022-08-14T11:43:15.038Z,22.25
2022-08-14T11:45:47.838Z,22.80
2022-08-14T11:48:59.191Z,21.48
2022-08-14T11:51:13.679Z,21.60
2022-08-14T11:53:45.697Z,21.98
2022-08-14T11:56:13.170Z,21.80
2022-08-14T11:58:40.722Z,22.23
2022-08-14T12:01:09.831Z,20.45
2022-08-14T12:03:52.058Z,19.75
2022-08-14T12:06:29.267Z,19.83
2022-08-14T12:09:15.332Z,19.70
2022-08-14T12:11:46.929Z,21.52
2022-08-14T12:14:34.842Z,20.15
2022-08-14T12:17:12.822Z,20.05
2022-08-14T12:19:57.040Z,20.08
2022-08-14T12:22:35.845Z,20.90
2022-08-14T12:25:13.797Z,20.38
2022-08-14T12:27:54.033Z,19.63
2022-08-14T12:30:39.718Z,19.52
2022-08-14T12:33:35.893Z,19.90
2022-08-14T12:36:19.846Z,17.73
2022-08-14T12:38:54.087Z,18.08
2022-08-14T12:41:34.400Z,16.27
2022-08-14T12:44:06.648Z,18.95
2022-08-14T12:46:43.426Z,18.15
2022-08-14T12:49:17.172Z,16.52
2022-08-14T12:51:56.842Z,17.25
2022-08-14T12:54:26.468Z,16.83
2022-08-14T12:57:19.501Z,17.52
2022-08-14T12:59:47.546Z,16.40
2022-08-14T13:02:39.002Z,17.75
2022-08-14T13:05:10.746Z,17.42
2022-08-14T13:07:40.180Z,18.10
2022-08-14T13:10:51.227Z,19.70
2022-08-14T13:13:13.617Z,19.60
2022-08-14T13:15:45.469Z,17.42
2022-08-14T13:20:49.498Z,17.50
2022-08-14T13:23:30.645Z,17.98
2022-08-14T13:26:01.002Z,17.52
2022-08-14T13:28:33.775Z,16.92
2022-08-14T13:31:11.068Z,16.90
2022-08-14T13:33:40.658Z,15.98
2022-08-14T13:36:09.149Z,16.20
2022-08-14T13:38:35.890Z,17.70
2022-08-14T13:41:03.151Z,17.38
2022-08-14T13:43:31.457Z,15.75
2022-08-14T13:46:03.970Z,16.83
2022-08-14T13:48:33.204Z,16.90
2022-08-14T13:51:08.021Z,16.15
2022-08-14T13:54:07.068Z,16.08
2022-08-14T13:56:39.818Z,15.75
2022-08-14T13:59:07.431Z,15.73
2022-08-14T14:01:42.673Z,17.65
2022-08-14T14:04:19.642Z,17.92
2022-08-14T14:06:49.238Z,16.65
2022-08-14T14:09:21.549Z,14.93
2022-08-14T14:11:52.810Z,15.20
2022-08-14T14:14:44.617Z,16.08
2022-08-14T14:17:12.481Z,15.63
2022-08-14T14:19:41.905Z,16.42
2022-08-14T14:22:13.610Z,16.95
2022-08-14T14:25:00.616Z,16.30
2022-08-14T14:27:40.778Z,15.07
2022-08-14T14:30:46.004Z,15.63
2022-08-14T14:33:02.366Z,16.00
2022-08-14T14:35:34.930Z,16.08
2022-08-14T14:38:09.047Z,15.80
2022-08-14T14:43:28.145Z,15.55
2022-08-14T14:45:56.285Z,15.32
2022-08-14T14:50:59.377Z,15.07
2022-08-14T14:53:39.397Z,17.83
2022-08-14T14:56:50.337Z,15.90
2022-08-14T14:58:57.769Z,16.70
2022-08-14T15:01:25.258Z,16.42
2022-08-14T15:03:55.079Z,17.23
2022-08-14T15:06:30.196Z,17.52
2022-08-14T15:08:59.926Z,17.75
2022-08-14T15:13:59.122Z,16.00
2022-08-14T15:16:27.517Z,17.15
2022-08-14T15:18:54.701Z,16.23
2022-08-14T15:21:21.590Z,17.20
2022-08-14T15:23:50.593Z,19.10
2022-08-14T15:26:31.286Z,17.23
2022-08-14T15:29:06.556Z,17.77
2022-08-14T15:31:36.409Z,17.52
2022-08-14T15:34:44.381Z,15.93
2022-08-14T15:37:03.274Z,17.60
2022-08-14T15:39:33.988Z,17.73
2022-08-14T15:42:14.680Z,16.25
2022-08-14T15:44:44.779Z,15.90
2022-08-14T15:47:28.902Z,17.83
2022-08-14T15:49:59.652Z,17.42
2022-08-14T15:52:35.307Z,17.48
2022-08-14T15:55:12.975Z,18.02
2022-08-14T15:57:51.469Z,17.48
2022-08-14T16:00:49.715Z,17.13
2022-08-14T16:03:27.143Z,16.90
2022-08-14T16:06:11.144Z,17.13
2022-08-14T16:08:44.286Z,17.15
2022-08-14T16:11:12.123Z,17.38
2022-08-14T16:13:44.314Z,17.02
2022-08-14T16:16:48.064Z,17.27
2022-08-14T16:19:09.810Z,15.98
2022-08-14T16:21:39.553Z,17.38
2022-08-14T16:24:06.448Z,18.02
2022-08-14T16:26:34.803Z,17.92
2022-08-14T16:29:06.354Z,15.85
2022-08-14T16:31:36.665Z,14.88
2022-08-14T16:34:45.629Z,14.27
2022-08-14T16:36:55.925Z,12.25
2022-08-14T16:39:23.890Z,11.73
2022-08-14T16:41:56.788Z,12.00
2022-08-14T16:44:33.554Z,12.00
2022-08-14T16:47:03.974Z,9.95
2022-08-14T16:50:03.310Z,9.90
2022-08-14T16:52:25.582Z,9.57
2022-08-14T16:55:07.452Z,8.57
2022-08-14T16:57:46.700Z,8.07
2022-08-14T17:00:43.565Z,8.10
2022-08-14T17:03:12.838Z,8.18
2022-08-14T17:05:43.440Z,7.95
2022-08-14T17:08:32.796Z,7.40
2022-08-14T17:11:10.159Z,6.85
2022-08-14T17:13:57.758Z,7.28
2022-08-14T17:16:29.620Z,6.75
2022-08-14T17:19:00.744Z,6.47
2022-08-14T17:21:35.377Z,6.70
2022-08-14T17:24:56.493Z,6.03
2022-08-14T17:27:03.961Z,7.00
2022-08-14T17:29:34.164Z,7.22
2022-08-14T17:32:21.930Z,6.55
2022-08-14T17:34:57.712Z,6.70
2022-08-14T17:37:39.249Z,7.07
2022-08-14T17:40:18.857Z,7.28
2022-08-14T17:42:51.385Z,6.55
2022-08-14T17:45:42.760Z,6.97
2022-08-14T17:49:14.195Z,6.97
2022-08-14T17:51:23.977Z,6.80
2022-08-14T17:54:02.556Z,6.88
2022-08-14T17:56:34.034Z,6.95
2022-08-14T17:59:06.880Z,6.18
2022-08-14T18:01:40.700Z,6.22
2022-08-14T18:04:24.917Z,6.57
2022-08-14T18:07:16.222Z,6.07
2022-08-14T18:09:57.451Z,6.05
2022-08-14T18:12:48.712Z,6.22
2022-08-14T18:17:52.919Z,5.72
2022-08-14T18:21:40.516Z,6.65
2022-08-14T18:23:13.767Z,6.82
2022-08-14T18:25:54.489Z,7.97
2022-08-14T18:28:47.994Z,7.25
2022-08-14T18:31:42.353Z,7.47
2022-08-14T18:34:32.150Z,7.68
2022-08-14T18:37:13.888Z,7.65
2022-08-14T18:40:01.732Z,8.23
2022-08-14T18:42:34.849Z,7.78
2022-08-14T18:45:12.230Z,7.82
2022-08-14T18:50:32.205Z,8.10
2022-08-14T18:53:10.541Z,8.10
2022-08-14T18:55:53.047Z,8.85
2022-08-14T18:58:27.666Z,8.20
2022-08-14T19:01:00.794Z,9.20
2022-08-14T19:03:37.379Z,8.55
2022-08-14T19:06:07.206Z,8.43
2022-08-14T19:08:42.230Z,9.18
2022-08-14T19:11:39.768Z,9.45
2022-08-14T19:14:08.002Z,9.48
2022-08-14T19:16:42.757Z,9.63
2022-08-14T19:19:11.816Z,8.82
2022-08-14T19:21:45.241Z,9.10
2022-08-14T19:24:45.323Z,10.50
2022-08-14T19:27:37.980Z,9.27
2022-08-14T19:30:19.245Z,8.45
2022-08-14T19:32:52.258Z,9.05
2022-08-14T19:35:24.466Z,9.65
2022-08-14T19:37:58.458Z,10.10
2022-08-14T19:40:43.084Z,10.00
2022-08-14T19:43:10.785Z,10.45
2022-08-14T19:45:44.575Z,10.95
2022-08-14T19:48:14.068Z,10.85
2022-08-14T19:50:44.932Z,9.80
2022-08-14T19:53:16.964Z,10.63
2022-08-14T19:55:56.583Z,10.65
2022-08-14T19:58:26.075Z,11.43
2022-08-14T20:00:57.265Z,10.38
2022-08-14T20:03:26.821Z,10.82
2022-08-14T20:06:13.709Z,10.52
2022-08-14T20:10:58.500Z,10.32
2022-08-14T20:12:02.063Z,10.02
2022-08-14T20:14:29.833Z,10.27
2022-08-14T20:17:06.054Z,11.93
2022-08-14T20:19:38.011Z,11.35
2022-08-14T20:22:36.932Z,11.40
2022-08-14T20:25:15.387Z,11.07
2022-08-14T20:27:44.470Z,13.27
2022-08-14T20:30:33.514Z,14.60
2022-08-14T20:33:11.758Z,13.25
2022-08-14T20:35:38.906Z,13.32
2022-08-14T20:38:29.711Z,12.77
2022-08-14T20:41:09.787Z,13.48
2022-08-14T20:44:00.967Z,14.07
2022-08-14T20:46:38.689Z,15.98
2022-08-14T20:49:09.046Z,15.30
2022-08-14T20:51:54.580Z,15.73
2022-08-14T20:54:36.898Z,14.70
2022-08-14T20:57:17.719Z,14.77
2022-08-14T20:59:52.924Z,15.02
2022-08-14T21:02:38.597Z,14.38
2022-08-14T21:05:16.899Z,14.32
2022-08-14T21:07:51.026Z,15.45
2022-08-14T21:10:35.604Z,14.65
2022-08-14T21:13:25.753Z,15.07
2022-08-14T21:15:57.587Z,15.38
2022-08-14T21:18:44.916Z,14.70
2022-08-14T21:21:18.039Z,14.17
2022-08-14T21:23:54.540Z,15.43
2022-08-14T21:26:51.242Z,14.73
2022-08-14T21:29:12.020Z,14.52
2022-08-14T21:31:41.829Z,14.07
2022-08-14T21:34:27.277Z,14.50
2022-08-14T21:36:56.637Z,14.95
2022-08-14T21:39:24.741Z,13.82
2022-08-14T21:41:58.650Z,15.80
2022-08-14T21:44:43.107Z,14.02
2022-08-14T21:47:12.401Z,14.63
2022-08-14T21:49:45.989Z,14.90
2022-08-14T21:52:51.651Z,14.70
2022-08-14T21:55:12.344Z,15.07
2022-08-14T21:58:46.100Z,13.80
2022-08-14T22:00:36.555Z,14.40
2022-08-14T22:03:10.106Z,13.73
2022-08-14T22:05:40.022Z,13.40
2022-08-14T22:08:12.089Z,14.02
2022-08-14T22:10:42.422Z,15.48
2022-08-14T22:13:12.579Z,14.02
2022-08-14T22:15:43.886Z,15.05
2022-08-14T22:18:20.380Z,13.98
2022-08-14T22:20:48.402Z,15.02
2022-08-14T22:23:21.715Z,15.20
2022-08-14T22:25:51.247Z,14.80
2022-08-14T22:28:33.430Z,14.20
2022-08-14T22:31:03.682Z,15.63
2022-08-14T22:33:38.157Z,14.77
2022-08-14T22:36:26.154Z,15.95
2022-08-14T22:38:54.724Z,15.27
2022-08-14T22:41:30.503Z,15.70
2022-08-14T22:44:12.999Z,15.93
2022-08-14T22:46:43.601Z,14.43
2022-08-14T22:49:16.092Z,15.45
2022-08-14T22:52:04.753Z,14.23
2022-08-14T22:54:53.823Z,14.38
2022-08-14T22:57:20.728Z,14.43
2022-08-14T22:59:50.375Z,14.20
2022-08-14T23:02:30.423Z,14.00
2022-08-14T23:05:03.885Z,14.50
2022-08-14T23:08:59.555Z,14.57
2022-08-14T23:10:32.821Z,14.38
2022-08-14T23:13:02.129Z,13.63
2022-08-14T23:15:30.351Z,13.35
2022-08-14T23:17:57.529Z,14.38
2022-08-14T23:20:29.460Z,13.35
2022-08-14T23:22:57.405Z,14.00
2022-08-14T23:25:58.004Z,14.32
2022-08-14T23:28:33.900Z,12.65
2022-08-14T23:31:12.777Z,12.80
2022-08-14T23:33:46.251Z,13.57
2022-08-14T23:36:31.426Z,13.10
2022-08-14T23:39:00.285Z,13.63
2022-08-14T23:41:27.083Z,13.50
2022-08-14T23:44:15.080Z,13.88
2022-08-14T23:46:43.416Z,14.60
2022-08-14T23:49:12.552Z,13.40
2022-08-14T23:51:39.437Z,13.00
2022-08-14T23:54:48.117Z,13.55
2022-08-14T23:57:02.519Z,14.35
2022-08-14T23:59:30.754Z,14.52
